PORT of AMRUM

Država: Germany Država: Germany [DE]
Širina / Dužina: 54.63226° / 8.392989° Prikaži na mapi
Lokalno vreme:  [UTC +2]
UN/LOCODE: DEIAM
Plovilo je trenutno u luci: 5
Očekivani dolasci: 1

Skorašnji dolasci i odlasci


Ime plovila
Dolazak (UTC)
Dolazak (LT)
Odlazak (UTC)
Odlazak (LT)
Vessel Type: Brod velike brzine  ADLER EXPRESS 2014-08-23 10:42:00 2014-08-23 12:42:00
Vessel Type: Putnički brodovi  HILLIGENLEI 2014-08-23 10:37:00 2014-08-23 12:37:00
Vessel Type: Brod velike brzine  ADLER EXPRESS 2014-08-23 08:53:00 2014-08-23 10:53:00 2014-08-23 10:31:00 2014-08-23 12:31:00
Vessel Type: Putnički brodovi  RUNGHOLT 2014-08-23 09:42:00 2014-08-23 11:42:00 2014-08-23 10:22:00 2014-08-23 12:22:00
Vessel Type: Putnički brodovi  SCHLESWIG HOLSTEIN 2014-08-23 07:09:00 2014-08-23 09:09:00 2014-08-23 07:46:00 2014-08-23 09:46:00
Vessel Type: Putnički brodovi  RUNGHOLT 2014-08-22 20:14:00 2014-08-22 22:14:00 2014-08-23 05:59:00 2014-08-23 07:59:00
Vessel Type: Putnički brodovi  SCHLESWIG HOLSTEIN 2014-08-22 17:57:00 2014-08-22 19:57:00 2014-08-23 03:56:00 2014-08-23 05:56:00
Vessel Type: Brod velike brzine  ADLER EXPRESS 2014-08-22 15:59:00 2014-08-22 17:59:00 2014-08-22 16:17:00 2014-08-22 18:17:00
Vessel Type: Putnički brodovi  EILUN 2014-08-22 12:39:00 2014-08-22 14:39:00 2014-08-22 15:40:00 2014-08-22 17:40:00
Vessel Type: Putnički brodovi  RUNGHOLT 2014-08-22 14:47:00 2014-08-22 16:47:00 2014-08-22 15:33:00 2014-08-22 17:33:00

Očekivani dolasci


Ime plovila
Scheduled Arrival (UTC)
Planirani dolazak (lokalno vreme)
Procenjeno vreme dolaska (UTC)
Procenjeno vreme dolaska (lokalno)
Vessel Type: Jahte i drugi  SIEM MOXIE 2014-08-22 18:00:00 2014-08-22 20:00:00 2014-08-22 14:38:00 2014-08-22 16:38:00

Wind Forecast


    
Vreme (UTC)
Brzina
Direction
Temperature
2014-08-23 09:00:00 18 knots 280° 14°C
2014-08-23 12:00:00 18 knots 272° 14°C
2014-08-23 15:00:00 19 knots 269° 15°C
2014-08-23 18:00:00 18 knots 278° 15°C
2014-08-23 21:00:00 15 knots 304° 14°C
2014-08-24 00:00:00 17 knots 297° 15°C
2014-08-24 03:00:00 19 knots 296° 15°C
2014-08-24 06:00:00 21 knots 281° 14°C
2014-08-24 09:00:00 23 knots 276° 14°C
2014-08-24 12:00:00 22 knots 296° 15°C
2014-08-24 15:00:00 23 knots 301° 15°C
2014-08-24 18:00:00 24 knots 302° 15°C
2014-08-24 21:00:00 23 knots 299° 14°C
2014-08-25 00:00:00 23 knots 298° 14°C
2014-08-25 03:00:00 23 knots 302° 14°C
2014-08-25 06:00:00 22 knots 308° 14°C
2014-08-25 09:00:00 20 knots 307° 14°C